Time;durP1;ratioP1;P1;durP2;ratioP2;P2;SDS_P1;SDS_P2;PMS_P1;PMS_P2;Temp;Humidity;BMP_temperature;BMP_pressure;BME280_temperature;BME280_humidity;BME280_pressure;Samples;Min_cycle;Max_cycle;Signal;HPM_P1;HPM_P2
2021/11/08 00:00:14;;;;;;;3.45;1.30;;;21.60;40.20;;;;;;5024716;28;20108;-54
2021/11/08 00:02:44;;;;;;;2.50;1.10;;;21.60;40.20;;;;;;5028655;28;20033;-51
2021/11/08 00:05:10;;;;;;;4.65;1.40;;;21.60;40.20;;;;;;5015381;28;20437;-50
2021/11/08 00:07:36;;;;;;;2.58;1.23;;;21.60;40.20;;;;;;5016168;28;20025;-52
2021/11/08 00:10:06;;;;;;;3.33;1.27;;;21.60;40.20;;;;;;5015625;28;20099;-48
2021/11/08 00:12:32;;;;;;;2.80;1.25;;;21.60;40.20;;;;;;5016453;28;20096;-48
2021/11/08 00:14:59;;;;;;;2.45;1.05;;;21.60;40.20;;;;;;5015249;28;20046;-51
2021/11/08 00:22:26;;;;;;;4.60;1.45;;;21.50;40.20;;;;;;5015699;28;20030;-50
2021/11/08 00:24:52;;;;;;;3.17;1.25;;;21.60;40.20;;;;;;5026078;28;20108;-49
2021/11/08 00:27:19;;;;;;;2.50;1.25;;;21.50;40.20;;;;;;5035201;28;20116;-46
2021/11/08 00:29:45;;;;;;;2.45;1.17;;;21.50;40.20;;;;;;5029529;28;20053;-46
2021/11/08 00:32:11;;;;;;;3.58;1.42;;;21.50;40.20;;;;;;5014975;28;20026;-47
2021/11/08 00:34:38;;;;;;;2.88;1.35;;;21.50;40.20;;;;;;5019914;28;20044;-49
2021/11/08 00:37:05;;;;;;;3.10;1.50;;;21.50;40.10;;;;;;5015899;28;20071;-50
2021/11/08 00:39:31;;;;;;;3.00;1.50;;;21.50;40.20;;;;;;5018910;28;20057;-51
2021/11/08 00:41:56;;;;;;;2.67;1.23;;;21.50;40.20;;;;;;5015493;28;20488;-49
2021/11/08 00:44:22;;;;;;;2.42;1.10;;;21.50;40.20;;;;;;5021131;28;20025;-47
2021/11/08 00:46:48;;;;;;;2.20;1.02;;;21.50;40.20;;;;;;5035163;28;20057;-46
2021/11/08 00:49:15;;;;;;;1.80;1.10;;;21.50;40.20;;;;;;5031988;28;20066;-47
2021/11/08 00:51:44;;;;;;;3.03;1.40;;;21.50;40.20;;;;;;5025038;28;20096;-49
2021/11/08 00:54:12;;;;;;;3.60;1.48;;;21.40;40.10;;;;;;5034921;28;20058;-49
2021/11/08 00:56:43;;;;;;;2.15;1.00;;;21.50;40.20;;;;;;5034429;28;20426;-46
2021/11/08 00:59:12;;;;;;;2.53;1.20;;;21.50;40.20;;;;;;5016057;28;20045;-49
2021/11/08 01:01:38;;;;;;;2.83;1.30;;;21.40;40.10;;;;;;5022830;28;20064;-49
2021/11/08 01:04:04;;;;;;;3.60;1.40;;;21.40;40.10;;;;;;5034216;28;20044;-48
2021/11/08 01:06:29;;;;;;;2.50;1.10;;;21.40;40.20;;;;;;5034628;28;20029;-46
2021/11/08 01:08:55;;;;;;;2.15;1.13;;;21.40;40.20;;;;;;5033879;28;20345;-53
2021/11/08 01:11:21;;;;;;;4.47;1.33;;;21.40;40.10;;;;;;5030351;28;20040;-54
2021/11/08 01:13:46;;;;;;;3.25;1.10;;;21.40;40.20;;;;;;5032937;28;20140;-55
2021/11/08 01:16:13;;;;;;;3.58;1.20;;;21.40;40.20;;;;;;5035433;28;20038;-55
2021/11/08 01:18:39;;;;;;;2.72;1.15;;;21.40;40.20;;;;;;5025532;28;20452;-51
2021/11/08 01:21:08;;;;;;;3.47;1.38;;;21.40;40.20;;;;;;5018475;28;20042;-50
2021/11/08 01:23:34;;;;;;;3.45;1.27;;;21.40;40.20;;;;;;5029911;28;20041;-47
2021/11/08 01:26:09;;;;;;;2.30;1.17;;;21.40;40.20;;;;;;5034613;28;20051;-51
2021/11/08 01:28:38;;;;;;;4.15;1.45;;;21.40;40.10;;;;;;5031480;28;20057;-49
2021/11/08 01:31:06;;;;;;;1.67;0.90;;;21.40;40.20;;;;;;5029647;28;20112;-46
2021/11/08 01:33:33;;;;;;;2.60;1.10;;;21.40;40.20;;;;;;5018120;28;20100;-46
2021/11/08 01:38:46;;;;;;;2.75;1.00;;;21.40;40.20;;;;;;5024035;28;20061;-49
2021/11/08 01:41:14;;;;;;;3.08;1.50;;;21.40;40.20;;;;;;5033712;28;20038;-47
2021/11/08 01:43:41;;;;;;;3.15;1.02;;;21.40;40.20;;;;;;5035554;28;20060;-47
2021/11/08 01:46:08;;;;;;;2.50;1.05;;;21.30;40.10;;;;;;5019912;28;20108;-47
2021/11/08 01:48:34;;;;;;;2.58;1.20;;;21.40;40.10;;;;;;5019520;28;20037;-48
2021/11/08 01:51:01;;;;;;;3.90;1.38;;;21.40;40.10;;;;;;5018869;28;20050;-46
2021/11/08 01:53:28;;;;;;;3.25;1.33;;;21.40;40.20;;;;;;5022328;28;20051;-46
2021/11/08 01:55:54;;;;;;;1.92;0.90;;;21.30;40.10;;;;;;5023240;28;20038;-49
2021/11/08 01:58:22;;;;;;;2.55;0.90;;;21.30;40.10;;;;;;5024357;28;20026;-48
2021/11/08 02:00:49;;;;;;;2.90;1.45;;;21.30;40.10;;;;;;5018774;28;20064;-47
2021/11/08 02:03:18;;;;;;;2.60;0.93;;;21.30;40.10;;;;;;5033849;28;20530;-48
2021/11/08 02:05:46;;;;;;;1.50;0.70;;;21.30;40.10;;;;;;5032556;28;20116;-45
2021/11/08 02:08:12;;;;;;;2.88;1.08;;;21.30;40.10;;;;;;5034495;28;20030;-46
2021/11/08 02:10:38;;;;;;;2.72;1.10;;;21.30;40.10;;;;;;5023469;28;20049;-50
2021/11/08 02:13:06;;;;;;;2.05;1.10;;;21.30;40.10;;;;;;5029606;28;20151;-49
2021/11/08 02:15:32;;;;;;;2.53;1.30;;;21.30;40.10;;;;;;5037118;28;20375;-46
2021/11/08 02:17:58;;;;;;;2.70;0.98;;;21.30;40.10;;;;;;5023749;28;20412;-50
2021/11/08 02:20:27;;;;;;;2.75;1.25;;;21.30;40.10;;;;;;5025344;28;20052;-49
2021/11/08 02:22:56;;;;;;;2.30;1.15;;;21.30;40.10;;;;;;5038079;28;20091;-48
2021/11/08 02:25:24;;;;;;;2.60;1.20;;;21.30;40.00;;;;;;5030626;28;20034;-48
2021/11/08 02:27:51;;;;;;;1.95;0.82;;;21.30;40.10;;;;;;5017882;28;20026;-53
2021/11/08 02:30:19;;;;;;;3.38;1.10;;;21.30;40.10;;;;;;5018410;28;20050;-53
2021/11/08 02:32:47;;;;;;;4.90;1.40;;;21.30;40.10;;;;;;5019839;28;20031;-56
2021/11/08 02:35:15;;;;;;;2.17;1.10;;;21.20;40.00;;;;;;5021348;28;20457;-55
2021/11/08 02:37:41;;;;;;;3.22;1.40;;;21.30;40.00;;;;;;5033452;28;20041;-49
2021/11/08 02:40:13;;;;;;;2.50;1.00;;;21.30;40.00;;;;;;5034752;28;20112;-53
2021/11/08 02:42:39;;;;;;;2.72;1.27;;;21.30;40.00;;;;;;5017678;28;20029;-50
2021/11/08 02:45:07;;;;;;;3.67;1.20;;;21.30;40.00;;;;;;5017681;28;20033;-49
2021/11/08 02:47:33;;;;;;;2.88;1.27;;;21.20;40.00;;;;;;5026591;28;20108;-49
2021/11/08 02:50:01;;;;;;;2.45;1.00;;;21.20;40.00;;;;;;5026170;28;20061;-52
2021/11/08 02:52:28;;;;;;;2.50;1.10;;;21.20;40.00;;;;;;5017560;28;20083;-47
2021/11/08 02:54:54;;;;;;;2.83;1.00;;;21.20;40.00;;;;;;5023840;28;20060;-46
2021/11/08 02:57:23;;;;;;;2.83;1.00;;;21.20;40.00;;;;;;5033875;28;20029;-47
2021/11/08 02:59:50;;;;;;;2.92;1.30;;;21.20;40.00;;;;;;5037206;28;20029;-51
2021/11/08 03:02:17;;;;;;;2.63;0.93;;;21.20;40.00;;;;;;5016688;28;20092;-45
2021/11/08 03:04:46;;;;;;;3.72;1.42;;;21.20;40.00;;;;;;5017626;28;20034;-48
2021/11/08 03:07:13;;;;;;;2.80;1.20;;;21.20;40.00;;;;;;5017891;28;20040;-49
2021/11/08 03:09:46;;;;;;;2.10;0.90;;;21.20;40.00;;;;;;5025071;28;20038;-48
2021/11/08 03:12:17;;;;;;;1.38;0.75;;;21.20;40.00;;;;;;5023502;28;20079;-52
2021/11/08 03:14:58;;;;;;;2.33;1.05;;;21.20;40.00;;;;;;5017200;28;20519;-48
2021/11/08 03:17:30;;;;;;;2.45;1.05;;;21.20;40.00;;;;;;5017275;28;20432;-45
2021/11/08 03:19:56;;;;;;;2.30;1.15;;;21.20;40.00;;;;;;5036783;28;20034;-50
2021/11/08 03:22:26;;;;;;;3.47;1.25;;;21.20;40.00;;;;;;5035931;28;20440;-47
2021/11/08 03:24:56;;;;;;;2.33;0.85;;;21.20;40.00;;;;;;5019582;28;20034;-49
2021/11/08 03:27:33;;;;;;;2.17;0.98;;;21.20;40.00;;;;;;5031684;28;20029;-46
2021/11/08 03:29:59;;;;;;;1.83;0.93;;;21.20;40.00;;;;;;5020709;28;20113;-50
2021/11/08 03:32:26;;;;;;;2.38;1.00;;;21.20;40.00;;;;;;5035781;28;20049;-46
2021/11/08 03:37:21;;;;;;;2.70;1.00;;;21.10;39.90;;;;;;5033107;28;20030;-46
2021/11/08 03:39:49;;;;;;;2.28;0.93;;;21.20;40.00;;;;;;5016801;28;20097;-48
2021/11/08 03:42:15;;;;;;;2.17;1.15;;;21.10;39.90;;;;;;5022899;28;20026;-54
2021/11/08 03:44:41;;;;;;;1.77;0.95;;;21.20;40.00;;;;;;5034615;28;20044;-55
2021/11/08 03:47:07;;;;;;;1.15;0.68;;;21.10;40.00;;;;;;5036568;28;20112;-54
2021/11/08 03:49:33;;;;;;;1.42;0.90;;;21.10;40.00;;;;;;5025187;28;20049;-53
2021/11/08 03:52:00;;;;;;;2.42;1.05;;;21.20;40.00;;;;;;5021664;28;20027;-52
2021/11/08 03:54:27;;;;;;;3.22;1.27;;;21.10;39.90;;;;;;5032306;28;20103;-51
2021/11/08 03:56:53;;;;;;;2.83;1.00;;;21.10;40.00;;;;;;5021908;28;20424;-51
2021/11/08 03:59:20;;;;;;;2.00;1.13;;;21.10;40.00;;;;;;5016146;28;20037;-47
2021/11/08 04:01:46;;;;;;;1.83;0.90;;;21.10;39.90;;;;;;5029520;28;20056;-51
2021/11/08 04:04:12;;;;;;;4.15;1.25;;;21.10;39.90;;;;;;5034725;28;20025;-51
2021/11/08 04:06:39;;;;;;;1.83;0.98;;;21.10;40.00;;;;;;5035189;28;20098;-49
2021/11/08 04:09:11;;;;;;;2.72;1.00;;;21.10;40.00;;;;;;5035481;28;20029;-54
2021/11/08 04:11:38;;;;;;;2.58;0.93;;;21.10;39.90;;;;;;5016412;28;20034;-52
2021/11/08 04:14:05;;;;;;;3.30;0.93;;;21.10;39.90;;;;;;5016581;28;20041;-50
2021/11/08 04:16:33;;;;;;;2.60;1.00;;;21.10;39.90;;;;;;5024415;28;20096;-46
2021/11/08 04:19:01;;;;;;;2.10;1.10;;;21.10;39.90;;;;;;5016253;28;20025;-46
2021/11/08 04:21:27;;;;;;;2.17;1.00;;;21.10;39.90;;;;;;5035273;28;20109;-54
2021/11/08 04:23:54;;;;;;;3.88;1.17;;;21.10;39.90;;;;;;5035254;28;20441;-48
2021/11/08 04:26:21;;;;;;;2.30;1.10;;;21.10;39.90;;;;;;5017805;28;20064;-47
2021/11/08 04:29:02;;;;;;;2.03;0.75;;;21.10;39.90;;;;;;5031318;28;20034;-46
2021/11/08 04:31:29;;;;;;;2.10;1.00;;;21.10;39.90;;;;;;5023473;28;20436;-49
2021/11/08 04:34:02;;;;;;;2.72;0.98;;;21.10;39.90;;;;;;5034759;28;20043;-48
2021/11/08 04:39:10;;;;;;;2.83;1.10;;;21.10;39.90;;;;;;5035061;28;20064;-48
2021/11/08 04:51:48;;;;;;;2.83;1.10;;;21.00;39.80;;;;;;5034159;28;20029;-49
2021/11/08 04:54:26;;;;;;;1.75;0.70;;;21.00;39.80;;;;;;5022845;28;20053;-46
2021/11/08 05:30:00;;;;;;;2.55;0.70;;;20.90;39.80;;;;;;5016044;28;20030;-46
2021/11/08 05:32:30;;;;;;;3.17;0.68;;;20.90;39.80;;;;;;5034205;28;20060;-55
2021/11/08 05:34:56;;;;;;;1.70;0.70;;;20.90;39.80;;;;;;5032880;28;20037;-47
2021/11/08 05:37:23;;;;;;;1.90;1.00;;;20.90;39.70;;;;;;5035082;28;20029;-50
2021/11/08 05:39:51;;;;;;;1.55;0.55;;;20.90;39.80;;;;;;5030370;28;20456;-49
2021/11/08 05:42:19;;;;;;;1.88;0.73;;;20.90;39.70;;;;;;5015027;28;20057;-48
2021/11/08 05:44:45;;;;;;;3.45;1.02;;;20.90;39.70;;;;;;5027197;28;20038;-49
2021/11/08 05:47:11;;;;;;;1.35;0.60;;;20.90;39.70;;;;;;5028298;28;20036;-45
2021/11/08 05:49:37;;;;;;;2.85;0.90;;;20.90;39.70;;;;;;5033653;28;20042;-46
2021/11/08 05:52:04;;;;;;;1.50;0.90;;;20.90;39.70;;;;;;5033956;28;20036;-47
2021/11/08 05:54:30;;;;;;;1.70;0.90;;;20.90;39.70;;;;;;5033760;28;20056;-48
2021/11/08 06:51:37;;;;;;;1.83;0.75;;;20.80;39.90;;;;;;5019361;28;20029;-50
2021/11/08 06:54:04;;;;;;;2.47;0.90;;;20.80;39.90;;;;;;5029381;28;20049;-48
2021/11/08 06:56:37;;;;;;;1.27;0.77;;;20.90;39.90;;;;;;5029099;28;20066;-47
2021/11/08 06:59:04;;;;;;;2.47;1.10;;;20.90;39.90;;;;;;5023624;28;20104;-53
2021/11/08 07:01:31;;;;;;;1.92;0.73;;;20.90;39.80;;;;;;5025388;28;20033;-48
2021/11/08 07:03:57;;;;;;;1.70;0.85;;;20.90;39.90;;;;;;5036181;28;20025;-48
2021/11/08 07:06:23;;;;;;;2.03;0.70;;;20.90;39.80;;;;;;5035131;28;20030;-50
2021/11/08 07:08:50;;;;;;;2.22;0.90;;;20.90;39.80;;;;;;5021454;28;20021;-47
2021/11/08 07:11:16;;;;;;;2.03;1.10;;;20.90;39.90;;;;;;5019446;28;20044;-46
2021/11/08 07:13:43;;;;;;;2.67;0.95;;;20.90;39.90;;;;;;5028127;28;20119;-50
2021/11/08 07:16:08;;;;;;;5.30;1.42;;;20.90;39.90;;;;;;5024795;28;20061;-52
2021/11/08 07:18:34;;;;;;;3.78;1.33;;;20.90;39.90;;;;;;5017516;28;20119;-48
2021/11/08 07:21:00;;;;;;;3.15;1.00;;;20.90;40.50;;;;;;5019317;28;20114;-50
2021/11/08 07:23:26;;;;;;;1.60;0.75;;;20.80;39.90;;;;;;5018514;28;20080;-44
2021/11/08 07:25:51;;;;;;;4.35;1.08;;;20.90;40.00;;;;;;5016425;28;20034;-45
2021/11/08 07:28:17;;;;;;;2.47;0.98;;;20.80;39.90;;;;;;5031790;28;20127;-45
2021/11/08 07:30:46;;;;;;;3.05;1.20;;;20.90;40.00;;;;;;5030915;28;20061;-46
2021/11/08 07:33:12;;;;;;;4.57;1.80;;;20.90;40.00;;;;;;5020155;28;20025;-48
2021/11/08 07:35:38;;;;;;;3.25;1.17;;;20.90;40.00;;;;;;5021001;28;20034;-46
2021/11/08 07:38:04;;;;;;;4.07;1.02;;;21.00;40.00;;;;;;5031818;28;20510;-46
2021/11/08 07:40:30;;;;;;;3.63;1.73;;;21.10;40.00;;;;;;5030515;28;20057;-49
2021/11/08 07:42:55;;;;;;;4.50;1.23;;;21.10;39.90;;;;;;5016243;28;20072;-49
2021/11/08 07:45:21;;;;;;;3.33;1.17;;;21.20;39.90;;;;;;5018818;28;20100;-48
2021/11/08 07:47:47;;;;;;;2.67;0.90;;;21.30;39.80;;;;;;5021613;28;20045;-45
2021/11/08 07:50:13;;;;;;;2.60;1.00;;;21.40;39.80;;;;;;5017398;28;20030;-52
2021/11/08 07:52:38;;;;;;;2.95;1.15;;;21.50;39.70;;;;;;5034712;28;20109;-53
2021/11/08 07:55:05;;;;;;;2.10;1.00;;;21.60;39.60;;;;;;5035054;28;20057;-47
2021/11/08 07:57:31;;;;;;;3.13;1.30;;;21.70;39.60;;;;;;5034651;28;20033;-50
2021/11/08 07:59:56;;;;;;;3.30;1.02;;;21.80;39.50;;;;;;5035253;28;20025;-51
2021/11/08 08:02:23;;;;;;;3.35;1.13;;;21.80;39.40;;;;;;5033500;28;20121;-50
2021/11/08 08:04:48;;;;;;;2.92;1.10;;;21.90;39.30;;;;;;5020219;28;20041;-49
2021/11/08 08:07:14;;;;;;;3.75;1.13;;;22.00;39.30;;;;;;5030212;28;20376;-43
2021/11/08 08:09:40;;;;;;;3.17;1.20;;;22.10;39.30;;;;;;5027260;28;20087;-49
2021/11/08 08:12:07;;;;;;;2.88;1.02;;;22.10;39.20;;;;;;5033581;28;20033;-51
2021/11/08 08:14:32;;;;;;;3.85;1.45;;;22.20;39.10;;;;;;5027448;28;20393;-52
2021/11/08 08:17:03;;;;;;;3.60;1.13;;;22.30;39.10;;;;;;5021382;28;20038;-48
2021/11/08 08:19:30;;;;;;;3.08;1.15;;;22.40;39.10;;;;;;5033832;28;20437;-44
2021/11/08 08:21:56;;;;;;;3.03;1.15;;;22.40;39.10;;;;;;5019495;28;20483;-51
2021/11/08 08:24:21;;;;;;;2.65;1.20;;;22.50;39.00;;;;;;5020569;28;20026;-48
2021/11/08 08:26:47;;;;;;;3.55;1.23;;;22.50;39.00;;;;;;5028151;28;20029;-45
2021/11/08 08:29:14;;;;;;;2.75;1.20;;;22.60;38.90;;;;;;5027291;28;20034;-44
2021/11/08 08:31:43;;;;;;;3.50;1.45;;;22.60;38.80;;;;;;5027388;28;20083;-43
2021/11/08 08:34:12;;;;;;;2.30;1.25;;;22.70;38.80;;;;;;5031272;28;20449;-42
2021/11/08 08:36:38;;;;;;;2.60;1.05;;;22.80;38.70;;;;;;5029162;28;20037;-44
2021/11/08 08:39:06;;;;;;;3.58;1.27;;;22.80;38.60;;;;;;5025802;28;20034;-51
2021/11/08 08:41:34;;;;;;;2.80;1.08;;;22.90;38.60;;;;;;5021251;28;20104;-43
2021/11/08 08:44:00;;;;;;;3.30;1.20;;;22.90;38.60;;;;;;5023617;28;20021;-48
2021/11/08 08:46:27;;;;;;;3.42;1.50;;;23.00;38.60;;;;;;5032218;28;20029;-43
2021/11/08 08:48:53;;;;;;;2.22;1.20;;;23.00;38.50;;;;;;5032447;28;20026;-43
2021/11/08 08:51:20;;;;;;;2.65;1.05;;;23.00;38.40;;;;;;5021419;28;20072;-48
2021/11/08 08:53:46;;;;;;;1.80;1.00;;;23.10;38.40;;;;;;5021891;28;20086;-47
2021/11/08 08:56:13;;;;;;;2.53;1.27;;;23.10;38.40;;;;;;5017767;28;20045;-43
2021/11/08 08:58:39;;;;;;;3.28;1.38;;;23.20;38.40;;;;;;5017986;28;20029;-44
2021/11/08 09:01:05;;;;;;;2.88;1.10;;;23.20;38.30;;;;;;5029954;28;20079;-45
2021/11/08 09:03:31;;;;;;;3.03;1.17;;;23.20;38.30;;;;;;5027224;28;20368;-47
2021/11/08 09:05:58;;;;;;;2.38;1.20;;;23.30;38.30;;;;;;5020913;28;20029;-42
2021/11/08 09:08:27;;;;;;;3.33;1.42;;;23.30;38.40;;;;;;5030536;28;20090;-43
2021/11/08 09:10:56;;;;;;;2.60;1.02;;;23.40;38.50;;;;;;5028850;28;20096;-42
2021/11/08 09:13:29;;;;;;;4.22;1.23;;;23.40;38.50;;;;;;5015216;28;20069;-43
2021/11/08 09:16:11;;;;;;;2.05;1.08;;;23.40;38.50;;;;;;5019106;28;20068;-48
2021/11/08 09:18:54;;;;;;;3.75;1.30;;;23.50;38.60;;;;;;5023946;28;20045;-44
2021/11/08 09:21:29;;;;;;;2.65;1.20;;;23.50;38.60;;;;;;5012293;28;20069;-43
2021/11/08 09:24:03;;;;;;;3.42;1.00;;;23.60;38.60;;;;;;5014264;28;20364;-42
2021/11/08 09:26:34;;;;;;;2.95;1.02;;;23.60;38.50;;;;;;5020612;28;20038;-43
2021/11/08 09:29:01;;;;;;;1.58;0.98;;;23.60;38.50;;;;;;5023630;28;20068;-48
2021/11/08 09:31:27;;;;;;;6.07;1.17;;;23.70;38.60;;;;;;5048741;28;20043;-43
2021/11/08 09:34:10;;;;;;;3.63;1.10;;;23.70;38.80;;;;;;5054470;28;20039;-41
2021/11/08 09:36:39;;;;;;;2.03;1.13;;;23.70;38.90;;;;;;5054027;28;20551;-46
2021/11/08 09:39:22;;;;;;;3.55;1.27;;;23.70;38.90;;;;;;5054717;28;20037;-44
2021/11/08 09:41:59;;;;;;;2.42;1.00;;;23.70;38.90;;;;;;5020372;28;20032;-43
2021/11/08 09:44:33;;;;;;;4.05;1.00;;;23.70;38.90;;;;;;5029885;28;20033;-43
2021/11/08 09:47:00;;;;;;;2.70;1.08;;;23.70;39.00;;;;;;5029191;28;20037;-44
2021/11/08 09:49:29;;;;;;;2.88;1.08;;;23.60;39.00;;;;;;5046547;28;20431;-43
2021/11/08 09:51:57;;;;;;;2.40;1.50;;;23.60;39.00;;;;;;5033241;28;20041;-44
2021/11/08 09:54:27;;;;;;;3.45;1.20;;;23.60;39.00;;;;;;5042376;28;20088;-44
2021/11/08 09:56:59;;;;;;;3.58;1.30;;;23.60;39.00;;;;;;5035844;28;20460;-46
2021/11/08 09:59:30;;;;;;;1.73;1.00;;;23.60;39.00;;;;;;5032019;28;20357;-46
2021/11/08 10:01:56;;;;;;;1.92;0.98;;;23.60;39.10;;;;;;5027099;28;20050;-43
2021/11/08 10:04:23;;;;;;;2.53;1.23;;;23.60;39.10;;;;;;5042300;28;20030;-44
2021/11/08 10:06:50;;;;;;;3.67;1.27;;;23.60;39.20;;;;;;5032027;28;20120;-42
2021/11/08 10:09:22;;;;;;;3.30;1.48;;;23.60;39.20;;;;;;5027226;28;20033;-42
2021/11/08 10:11:50;;;;;;;3.83;1.40;;;23.60;39.20;;;;;;5023206;28;20033;-43
2021/11/08 10:14:19;;;;;;;2.53;1.35;;;23.60;39.20;;;;;;5019813;28;20453;-47
2021/11/08 10:16:47;;;;;;;4.60;1.60;;;23.50;39.10;;;;;;5031277;28;20453;-54
2021/11/08 10:19:21;;;;;;;3.30;1.23;;;23.50;39.10;;;;;;5027517;28;20022;-47
2021/11/08 10:21:50;;;;;;;4.60;1.83;;;23.50;39.20;;;;;;5028979;28;20041;-44
2021/11/08 10:24:26;;;;;;;2.55;1.20;;;23.40;39.20;;;;;;5024845;28;20555;-43
2021/11/08 10:26:54;;;;;;;4.30;1.33;;;23.40;39.20;;;;;;5025694;28;20449;-42
2021/11/08 10:29:25;;;;;;;4.15;1.20;;;23.40;39.20;;;;;;5029425;28;20437;-43
2021/11/08 10:31:58;;;;;;;4.70;1.70;;;23.30;39.20;;;;;;5027567;28;20418;-45
2021/11/08 10:34:25;;;;;;;3.67;1.45;;;23.30;39.20;;;;;;5024363;28;20450;-43
2021/11/08 10:36:59;;;;;;;4.95;1.77;;;23.20;39.30;;;;;;5024582;28;20041;-47
2021/11/08 10:39:25;;;;;;;4.93;1.67;;;23.20;39.30;;;;;;5024143;28;20128;-43
2021/11/08 10:41:53;;;;;;;4.05;1.50;;;23.20;39.40;;;;;;5025777;28;20157;-41
2021/11/08 10:44:22;;;;;;;3.22;1.45;;;23.10;39.40;;;;;;5026376;28;20029;-45
2021/11/08 10:47:04;;;;;;;4.78;1.70;;;23.10;39.50;;;;;;5025459;28;20392;-46
2021/11/08 10:49:42;;;;;;;2.92;1.20;;;23.10;39.40;;;;;;5026573;28;20033;-42
2021/11/08 10:52:08;;;;;;;3.42;1.23;;;23.10;39.50;;;;;;5022990;28;20026;-45
2021/11/08 10:54:37;;;;;;;4.35;1.85;;;23.00;39.50;;;;;;5024495;28;20045;-42
2021/11/08 10:57:12;;;;;;;3.88;1.40;;;23.00;39.60;;;;;;5023064;28;20124;-44
2021/11/08 10:59:44;;;;;;;3.25;1.20;;;23.00;39.60;;;;;;5027176;28;20037;-45
2021/11/08 11:02:12;;;;;;;2.83;1.30;;;22.90;39.70;;;;;;5025304;28;20108;-43
2021/11/08 11:04:49;;;;;;;2.45;1.13;;;22.90;39.70;;;;;;5025251;28;20038;-45
2021/11/08 11:07:24;;;;;;;5.28;1.73;;;22.90;39.70;;;;;;5023360;28;20373;-43
2021/11/08 11:09:55;;;;;;;2.63;1.40;;;22.90;39.80;;;;;;5024677;28;20033;-44
2021/11/08 11:12:26;;;;;;;2.33;1.10;;;22.90;39.80;;;;;;5025343;28;20412;-46
2021/11/08 11:15:04;;;;;;;3.38;1.25;;;22.80;39.80;;;;;;5026869;28;20471;-42
2021/11/08 11:17:39;;;;;;;2.97;1.35;;;22.90;39.80;;;;;;5022699;28;20445;-43
2021/11/08 11:20:13;;;;;;;4.53;1.33;;;22.80;39.80;;;;;;5023886;28;20527;-42
2021/11/08 11:22:44;;;;;;;3.55;1.50;;;22.80;39.80;;;;;;5023600;28;20452;-41
2021/11/08 11:25:12;;;;;;;4.20;1.80;;;22.80;39.90;;;;;;5024352;28;20121;-42
2021/11/08 11:27:49;;;;;;;3.65;1.40;;;22.80;39.90;;;;;;5025201;28;20433;-41
2021/11/08 11:30:21;;;;;;;2.78;1.20;;;22.80;39.90;;;;;;5021950;28;20034;-42
2021/11/08 11:33:10;;;;;;;3.83;1.65;;;22.80;39.90;;;;;;5026127;28;20124;-42
2021/11/08 11:35:50;;;;;;;2.97;1.10;;;22.80;39.80;;;;;;5025023;28;20049;-42
2021/11/08 11:38:23;;;;;;;3.58;1.30;;;22.80;39.80;;;;;;5022734;28;20096;-40
2021/11/08 11:41:13;;;;;;;2.45;1.10;;;22.80;39.80;;;;;;5023856;28;20049;-42
2021/11/08 11:43:52;;;;;;;4.35;1.42;;;22.80;39.80;;;;;;5024768;28;20121;-43
2021/11/08 11:46:26;;;;;;;3.47;1.48;;;22.80;39.80;;;;;;5023499;28;20041;-44
2021/11/08 11:48:53;;;;;;;4.18;0.98;;;22.80;39.90;;;;;;5023752;28;20080;-46
2021/11/08 11:51:28;;;;;;;2.53;1.25;;;22.70;39.90;;;;;;5022546;28;20083;-53
2021/11/08 11:53:55;;;;;;;1.60;0.90;;;22.70;39.90;;;;;;5023697;28;20049;-57
2021/11/08 11:56:23;;;;;;;1.00;0.50;;;22.70;39.70;;;;;;5023835;28;20045;-57
2021/11/08 11:58:50;;;;;;;2.05;0.70;;;22.70;39.50;;;;;;5023590;28;20041;-45
2021/11/08 12:01:19;;;;;;;1.55;0.75;;;22.70;39.50;;;;;;5023419;28;20029;-46
2021/11/08 12:03:45;;;;;;;1.88;1.00;;;22.60;39.50;;;;;;5028241;28;20531;-47
2021/11/08 12:06:14;;;;;;;4.00;1.10;;;22.60;39.80;;;;;;5023492;28;20025;-45
2021/11/08 12:08:42;;;;;;;1.55;0.90;;;22.60;40.00;;;;;;5033454;28;20086;-45
2021/11/08 12:11:09;;;;;;;2.95;1.10;;;22.60;40.10;;;;;;5020505;28;20101;-45
2021/11/08 12:13:40;;;;;;;3.47;1.30;;;22.60;40.10;;;;;;5043266;28;20553;-44
2021/11/08 12:16:21;;;;;;;2.08;1.00;;;22.60;40.10;;;;;;5023107;28;20073;-47
2021/11/08 12:18:48;;;;;;;2.25;1.10;;;22.60;40.10;;;;;;5024735;28;20061;-46
2021/11/08 12:21:40;;;;;;;2.80;0.98;;;22.50;40.20;;;;;;5023154;28;20029;-47
2021/11/08 12:24:20;;;;;;;3.20;1.40;;;22.50;40.40;;;;;;5018814;28;20459;-48
2021/11/08 12:26:47;;;;;;;2.65;0.93;;;22.50;40.50;;;;;;5024730;28;20029;-46
2021/11/08 12:29:18;;;;;;;3.63;1.27;;;22.50;40.60;;;;;;5031122;28;20104;-48
2021/11/08 12:31:46;;;;;;;3.30;1.65;;;22.50;40.70;;;;;;5021839;28;20368;-51
2021/11/08 12:34:19;;;;;;;2.72;1.25;;;22.50;40.70;;;;;;5022534;28;20364;-47
2021/11/08 12:37:02;;;;;;;1.98;0.82;;;22.50;40.80;;;;;;5022646;28;20041;-48
2021/11/08 12:39:29;;;;;;;2.88;1.05;;;22.50;40.80;;;;;;5023096;28;20029;-48
2021/11/08 12:42:03;;;;;;;3.08;1.20;;;22.50;40.90;;;;;;5021569;28;20079;-44
2021/11/08 12:44:46;;;;;;;2.38;1.05;;;22.40;40.80;;;;;;5019415;28;20030;-49
2021/11/08 12:47:13;;;;;;;2.28;1.02;;;22.50;40.80;;;;;;5016923;28;20026;-50
2021/11/08 12:49:51;;;;;;;2.53;1.15;;;22.50;40.90;;;;;;5021923;28;20113;-45
2021/11/08 12:52:24;;;;;;;1.80;1.00;;;22.50;40.80;;;;;;5021677;28;21366;-46
2021/11/08 12:55:01;;;;;;;2.13;1.03;;;22.50;40.70;;;;;;5021760;28;20058;-46
2021/11/08 12:57:29;;;;;;;2.78;0.98;;;22.60;40.60;;;;;;5024772;28;20770;-44
2021/11/08 13:00:00;;;;;;;1.95;1.08;;;22.60;40.60;;;;;;5021963;28;20042;-50
2021/11/08 13:02:39;;;;;;;2.30;1.00;;;22.60;40.50;;;;;;5022277;28;20025;-47
2021/11/08 13:05:10;;;;;;;2.90;1.40;;;22.60;40.50;;;;;;5020751;28;20033;-45
2021/11/08 13:07:43;;;;;;;2.53;1.02;;;22.60;40.60;;;;;;5022934;28;20025;-49
2021/11/08 13:10:22;;;;;;;3.15;1.23;;;22.60;40.80;;;;;;5019260;28;20384;-48
2021/11/08 13:12:48;;;;;;;3.20;1.20;;;22.60;40.90;;;;;;5022806;28;20025;-49
2021/11/08 13:15:20;;;;;;;2.58;1.05;;;22.60;41.00;;;;;;5019205;28;20042;-48
2021/11/08 13:17:58;;;;;;;2.97;1.08;;;22.60;40.90;;;;;;5023285;28;20037;-47
2021/11/08 13:20:27;;;;;;;4.50;1.38;;;22.70;40.80;;;;;;5014935;28;20033;-51
2021/11/08 13:22:57;;;;;;;6.20;1.30;;;22.70;40.80;;;;;;5017276;28;20033;-47
2021/11/08 13:25:28;;;;;;;2.50;0.90;;;22.70;40.70;;;;;;5016179;28;20306;-52
2021/11/08 13:28:08;;;;;;;2.13;0.90;;;22.70;40.60;;;;;;5014404;28;20037;-49
2021/11/08 13:30:48;;;;;;;2.80;1.10;;;22.70;40.50;;;;;;5024025;28;20025;-51
2021/11/08 13:33:17;;;;;;;2.60;1.20;;;22.80;40.50;;;;;;5024176;28;20033;-50
2021/11/08 13:35:45;;;;;;;2.20;0.95;;;22.80;40.50;;;;;;5035100;28;20038;-48
2021/11/08 13:38:20;;;;;;;1.95;0.98;;;22.80;40.50;;;;;;5023307;28;20026;-52
2021/11/08 13:41:03;;;;;;;1.83;0.98;;;22.80;40.40;;;;;;5016778;28;20483;-48
2021/11/08 13:43:44;;;;;;;2.50;0.90;;;22.80;40.40;;;;;;5020122;28;20026;-49
2021/11/08 13:46:19;;;;;;;2.15;1.05;;;22.80;40.40;;;;;;5018829;28;20065;-45
2021/11/08 13:48:50;;;;;;;3.22;1.30;;;22.80;40.40;;;;;;5032639;28;20033;-46
2021/11/08 13:51:25;;;;;;;1.83;0.90;;;22.80;40.40;;;;;;5037066;28;20037;-52
2021/11/08 13:53:58;;;;;;;1.88;0.82;;;22.80;40.40;;;;;;5032510;28;20526;-46
2021/11/08 13:56:31;;;;;;;2.92;1.10;;;22.80;40.40;;;;;;5038446;28;20455;-48
2021/11/08 13:58:58;;;;;;;7.25;1.30;;;22.70;40.50;;;;;;5030010;28;20030;-47
2021/11/08 14:01:29;;;;;;;4.57;1.38;;;22.70;40.60;;;;;;5028811;28;20441;-50
2021/11/08 14:03:55;;;;;;;3.75;1.08;;;22.70;40.60;;;;;;5018227;28;20108;-49
2021/11/08 14:06:33;;;;;;;2.10;1.10;;;22.70;40.60;;;;;;5018462;28;20034;-46
2021/11/08 14:09:01;;;;;;;3.35;1.10;;;22.70;40.50;;;;;;5028252;28;20033;-47
2021/11/08 14:11:36;;;;;;;2.53;1.23;;;22.70;40.50;;;;;;5036918;28;20037;-50
2021/11/08 14:14:20;;;;;;;5.20;1.13;;;22.80;40.50;;;;;;5035460;28;20091;-49
2021/11/08 14:16:48;;;;;;;3.63;1.53;;;22.70;40.40;;;;;;5027804;28;20041;-45
2021/11/08 14:19:16;;;;;;;3.05;1.05;;;22.70;40.50;;;;;;5025485;28;20295;-48
2021/11/08 14:21:43;;;;;;;2.42;1.20;;;22.70;40.50;;;;;;5034968;28;20049;-53
2021/11/08 14:24:14;;;;;;;1.80;0.85;;;22.70;40.50;;;;;;5025712;28;20488;-48
2021/11/08 14:26:47;;;;;;;3.17;0.90;;;22.60;40.40;;;;;;5027300;28;20043;-48
2021/11/08 14:29:20;;;;;;;1.90;0.80;;;22.70;40.50;;;;;;5033025;28;20022;-51
2021/11/08 14:32:17;;;;;;;3.42;1.20;;;22.70;40.50;;;;;;5020909;28;20159;-50
2021/11/08 14:34:46;;;;;;;2.25;0.88;;;22.70;40.40;;;;;;5018816;28;20026;-47
2021/11/08 14:37:16;;;;;;;2.17;0.73;;;22.60;40.40;;;;;;5018095;28;20408;-49
2021/11/08 14:39:46;;;;;;;2.53;1.05;;;22.70;40.40;;;;;;5035784;28;20045;-49
2021/11/08 14:42:13;;;;;;;2.10;1.05;;;22.60;40.40;;;;;;5028931;28;20524;-46
2021/11/08 14:44:41;;;;;;;2.30;1.02;;;22.60;40.40;;;;;;5018183;28;20071;-52
2021/11/08 14:47:25;;;;;;;2.95;1.23;;;22.60;40.40;;;;;;5028315;28;20052;-49
2021/11/08 14:50:06;;;;;;;4.38;1.20;;;22.70;40.40;;;;;;5032363;28;20116;-51